createdAt,value
2019-02-14T00:13:33.051Z,79.43
2019-02-14T00:16:01.865Z,79.43
2019-02-14T00:18:30.842Z,79.42
2019-02-14T00:20:59.849Z,79.31
2019-02-14T00:23:28.765Z,79.35
2019-02-14T00:25:57.735Z,79.70
2019-02-14T00:28:26.749Z,79.88
2019-02-14T00:30:55.708Z,80.19
2019-02-14T00:33:24.624Z,80.19
2019-02-14T00:35:53.542Z,80.78
2019-02-14T00:38:22.485Z,81.20
2019-02-14T00:40:51.509Z,81.51
2019-02-14T00:43:20.348Z,81.58
2019-02-14T00:45:49.275Z,81.61
2019-02-14T00:48:18.159Z,81.71
2019-02-14T00:50:46.973Z,81.62
2019-02-14T00:53:15.827Z,81.47
2019-02-14T00:55:44.739Z,81.30
2019-02-14T00:58:13.793Z,81.20
2019-02-14T01:00:42.687Z,80.60
2019-02-14T01:03:11.473Z,80.72
2019-02-14T01:05:40.318Z,80.47
2019-02-14T01:08:09.349Z,79.83
2019-02-14T01:10:38.168Z,80.11
2019-02-14T01:13:06.957Z,80.55
2019-02-14T01:15:36.359Z,80.92
2019-02-14T01:18:05.240Z,81.27
2019-02-14T01:20:34.230Z,81.52
2019-02-14T01:23:03.142Z,81.78
2019-02-14T01:25:31.958Z,81.92
2019-02-14T01:28:00.832Z,82.17
2019-02-14T01:30:29.740Z,81.64
2019-02-14T01:32:58.557Z,80.95
2019-02-14T01:35:27.460Z,80.85
2019-02-14T01:37:56.562Z,79.95
2019-02-14T01:40:25.596Z,80.30
2019-02-14T01:42:54.655Z,80.75
2019-02-14T01:45:23.511Z,80.90
2019-02-14T01:47:52.455Z,81.38
2019-02-14T01:50:21.475Z,81.40
2019-02-14T01:52:50.451Z,81.33
2019-02-14T01:55:19.411Z,81.26
2019-02-14T01:57:48.344Z,81.33
2019-02-14T02:00:17.916Z,81.17
2019-02-14T02:02:46.909Z,80.94
2019-02-14T02:05:15.923Z,81.31
2019-02-14T02:07:44.893Z,81.70
2019-02-14T02:10:14.029Z,81.09
2019-02-14T02:12:42.818Z,81.11
2019-02-14T02:15:13.493Z,81.51
2019-02-14T02:17:42.421Z,81.54
2019-02-14T02:20:11.732Z,81.49
2019-02-14T02:22:40.604Z,81.09
2019-02-14T02:25:10.412Z,81.16
2019-02-14T02:27:39.358Z,81.28
2019-02-14T02:30:10.661Z,81.40
2019-02-14T02:32:39.540Z,81.44
2019-02-14T02:35:08.528Z,81.54
2019-02-14T02:37:37.503Z,81.74
2019-02-14T02:40:06.834Z,81.81
2019-02-14T02:42:35.705Z,81.91
2019-02-14T02:45:05.248Z,82.22
2019-02-14T02:47:34.188Z,82.40
2019-02-14T02:50:03.131Z,82.21
2019-02-14T02:52:32.175Z,82.26
2019-02-14T02:55:01.085Z,82.33
2019-02-14T02:57:29.913Z,82.39
2019-02-14T02:59:58.869Z,82.36
2019-02-14T03:02:27.847Z,82.43
2019-02-14T03:04:56.777Z,82.53
2019-02-14T03:07:25.716Z,82.57
2019-02-14T03:09:54.679Z,82.63
2019-02-14T03:12:24.388Z,82.82
2019-02-14T03:14:53.295Z,82.72
2019-02-14T03:17:22.215Z,82.70
2019-02-14T03:19:51.249Z,82.51
2019-02-14T03:22:20.343Z,82.42
2019-02-14T03:24:49.172Z,82.32
2019-02-14T03:27:18.087Z,82.25
2019-02-14T03:29:46.993Z,82.33
2019-02-14T03:32:15.831Z,82.54
2019-02-14T03:34:44.758Z,82.96
2019-02-14T03:37:13.713Z,83.10
2019-02-14T03:39:42.658Z,83.01
2019-02-14T03:42:11.612Z,83.03
2019-02-14T03:44:40.543Z,82.96
2019-02-14T03:47:09.544Z,82.86
2019-02-14T03:49:38.469Z,82.96
2019-02-14T03:52:07.424Z,82.38
2019-02-14T03:54:36.390Z,82.22
2019-02-14T03:57:05.409Z,82.24
2019-02-14T03:59:34.196Z,82.40
2019-02-14T04:02:03.170Z,82.66
2019-02-14T04:04:32.037Z,82.82
2019-02-14T04:07:00.960Z,82.81
2019-02-14T04:09:29.822Z,82.71
2019-02-14T04:11:58.844Z,82.51
2019-02-14T04:14:27.885Z,82.53
2019-02-14T04:16:56.876Z,82.27
2019-02-14T04:19:25.665Z,82.24
2019-02-14T04:21:54.698Z,82.55
2019-02-14T04:24:23.658Z,82.70
2019-02-14T04:26:52.718Z,82.92
2019-02-14T04:29:21.681Z,83.05
2019-02-14T04:31:50.733Z,82.91
2019-02-14T04:34:19.882Z,82.63
2019-02-14T04:36:48.817Z,82.75
2019-02-14T04:39:17.787Z,82.85
2019-02-14T04:41:46.782Z,82.82
2019-02-14T04:44:15.736Z,82.39
2019-02-14T04:46:44.587Z,82.53
2019-02-14T04:49:13.384Z,82.90
2019-02-14T04:51:42.348Z,82.71
2019-02-14T04:54:11.295Z,82.54
2019-02-14T04:56:40.289Z,82.13
2019-02-14T04:59:09.166Z,81.15
2019-02-14T05:01:38.095Z,80.93
2019-02-14T05:04:07.013Z,81.40
2019-02-14T05:06:44.074Z,81.63
2019-02-14T05:09:10.221Z,81.84
2019-02-14T05:11:40.050Z,81.83
2019-02-14T05:14:08.960Z,82.01
2019-02-14T05:16:38.157Z,82.34
2019-02-14T05:19:07.165Z,82.34
2019-02-14T05:21:36.218Z,82.47
2019-02-14T05:24:05.254Z,82.55
2019-02-14T05:26:34.135Z,82.67
2019-02-14T05:29:03.040Z,82.67
2019-02-14T05:31:32.586Z,82.83
2019-02-14T05:34:01.713Z,82.52
2019-02-14T05:36:30.556Z,82.46
2019-02-14T05:39:00.368Z,82.55
2019-02-14T05:41:29.258Z,82.45
2019-02-14T05:43:58.223Z,82.31
2019-02-14T05:46:26.993Z,82.66
2019-02-14T05:48:55.944Z,82.74
2019-02-14T05:51:24.761Z,82.37
2019-02-14T05:53:53.598Z,82.15
2019-02-14T05:56:22.490Z,82.40
2019-02-14T05:58:51.652Z,82.21
2019-02-14T06:01:20.647Z,82.08
2019-02-14T06:03:49.733Z,82.14
2019-02-14T06:06:18.540Z,82.20
2019-02-14T06:08:47.382Z,82.30
2019-02-14T06:11:16.204Z,82.61
2019-02-14T06:13:45.200Z,82.69
2019-02-14T06:16:14.086Z,83.05
2019-02-14T06:18:43.063Z,83.10
2019-02-14T06:21:12.074Z,83.13
2019-02-14T06:23:41.070Z,83.20
2019-02-14T06:26:09.962Z,83.30
2019-02-14T06:28:38.917Z,83.15
2019-02-14T06:31:07.861Z,83.18
2019-02-14T06:33:36.847Z,83.04
2019-02-14T06:36:05.819Z,83.04
2019-02-14T06:38:34.722Z,83.09
2019-02-14T06:41:03.773Z,83.09
2019-02-14T06:43:32.810Z,81.87
2019-02-14T06:46:01.820Z,81.52
2019-02-14T06:48:30.856Z,81.09
2019-02-14T06:50:59.857Z,80.85
2019-02-14T06:53:28.958Z,80.70
2019-02-14T06:55:57.920Z,80.78
2019-02-14T06:58:26.820Z,80.94
2019-02-14T07:00:55.674Z,81.42
2019-02-14T07:03:24.986Z,81.65
2019-02-14T07:05:54.067Z,81.93
2019-02-14T07:08:23.060Z,82.37
2019-02-14T07:10:52.009Z,82.47
2019-02-14T07:13:20.966Z,82.49
2019-02-14T07:15:49.754Z,82.49
2019-02-14T07:18:18.659Z,82.16
2019-02-14T07:20:47.675Z,81.91
2019-02-14T07:23:16.719Z,81.87
2019-02-14T07:25:45.650Z,81.95
2019-02-14T07:28:14.475Z,82.26
2019-02-14T07:30:43.392Z,82.40
2019-02-14T07:33:12.805Z,82.73
2019-02-14T07:35:41.882Z,82.81
2019-02-14T07:38:11.041Z,82.48
2019-02-14T07:40:39.935Z,82.15
2019-02-14T07:43:08.843Z,81.97
2019-02-14T07:45:37.737Z,82.22
2019-02-14T07:48:06.748Z,82.49
2019-02-14T07:50:35.667Z,82.53
2019-02-14T07:53:04.701Z,82.58
2019-02-14T07:55:33.639Z,82.66
2019-02-14T07:58:02.638Z,82.29
2019-02-14T08:00:31.612Z,82.10
2019-02-14T08:03:00.619Z,81.72
2019-02-14T08:05:29.513Z,81.59
2019-02-14T08:08:00.559Z,81.77
2019-02-14T08:10:29.365Z,81.10
2019-02-14T08:12:58.354Z,80.61
2019-02-14T08:15:27.323Z,80.46
2019-02-14T08:17:56.290Z,80.13
2019-02-14T08:20:25.361Z,79.54
2019-02-14T08:22:55.051Z,79.57
2019-02-14T08:25:23.925Z,80.06
2019-02-14T08:27:52.914Z,80.27
2019-02-14T08:30:22.002Z,80.56
2019-02-14T08:32:50.895Z,80.59
2019-02-14T08:35:19.893Z,80.24
2019-02-14T08:37:48.749Z,78.76
2019-02-14T08:40:20.723Z,78.38
2019-02-14T08:42:49.611Z,78.85
2019-02-14T08:45:22.128Z,79.12
2019-02-14T08:47:50.997Z,78.39
2019-02-14T08:50:20.060Z,77.39
2019-02-14T08:52:49.081Z,76.58
2019-02-14T08:55:18.059Z,76.55
2019-02-14T08:57:46.885Z,76.25
2019-02-14T09:00:16.328Z,76.31
2019-02-14T09:02:45.552Z,74.35
2019-02-14T09:05:14.761Z,73.24
2019-02-14T09:07:43.846Z,72.42
2019-02-14T09:10:13.509Z,73.67
2019-02-14T09:12:43.403Z,70.69
2019-02-14T09:15:12.986Z,71.35
2019-02-14T09:17:42.099Z,72.32
2019-02-14T09:20:12.536Z,72.64
2019-02-14T09:22:41.522Z,72.94
2019-02-14T09:25:10.615Z,73.23
2019-02-14T09:27:39.521Z,70.97
2019-02-14T09:30:08.674Z,69.73
2019-02-14T09:32:37.810Z,70.94
2019-02-14T09:35:07.293Z,70.21
2019-02-14T09:37:36.336Z,69.92
2019-02-14T09:40:05.709Z,69.31
2019-02-14T09:42:34.741Z,68.66
2019-02-14T09:45:04.123Z,68.14
2019-02-14T09:47:33.084Z,68.10
2019-02-14T09:50:02.059Z,66.05
2019-02-14T09:52:31.018Z,66.33
2019-02-14T09:55:00.232Z,65.40
2019-02-14T09:57:29.378Z,65.22
2019-02-14T09:59:58.266Z,64.87
2019-02-14T10:02:27.195Z,64.68
2019-02-14T10:04:56.199Z,64.63
2019-02-14T10:07:25.077Z,64.70
2019-02-14T10:09:53.914Z,65.24
2019-02-14T10:12:23.142Z,64.92
2019-02-14T10:14:52.146Z,62.42
2019-02-14T10:17:22.466Z,61.90
2019-02-14T10:19:51.526Z,60.91
2019-02-14T10:22:21.248Z,61.08
2019-02-14T10:24:50.241Z,60.75
2019-02-14T10:27:19.207Z,60.61
2019-02-14T10:29:48.097Z,60.10
2019-02-14T10:32:17.141Z,60.44
2019-02-14T10:34:46.198Z,59.39
2019-02-14T10:37:15.101Z,58.53
2019-02-14T10:39:44.108Z,57.91
2019-02-14T10:42:13.120Z,56.90
2019-02-14T10:44:41.992Z,57.06
2019-02-14T10:47:10.816Z,56.26
2019-02-14T10:49:39.660Z,56.01
2019-02-14T10:52:08.596Z,55.50
2019-02-14T10:54:37.408Z,55.05
2019-02-14T10:57:06.381Z,55.07
2019-02-14T10:59:35.319Z,54.68
2019-02-14T11:02:05.432Z,55.47
2019-02-14T11:04:34.561Z,55.17
2019-02-14T11:07:03.465Z,54.91
2019-02-14T11:09:32.352Z,55.40
2019-02-14T11:12:01.418Z,55.89
2019-02-14T11:14:30.419Z,55.38
2019-02-14T11:16:59.416Z,55.86
2019-02-14T11:19:28.343Z,56.09
2019-02-14T11:21:57.375Z,55.56
2019-02-14T11:24:26.202Z,55.94
2019-02-14T11:26:55.119Z,56.33
2019-02-14T11:29:26.106Z,55.93
2019-02-14T11:31:55.063Z,54.92
2019-02-14T11:34:23.966Z,55.37
2019-02-14T11:36:53.099Z,54.90
2019-02-14T11:39:22.064Z,54.46
2019-02-14T11:41:50.978Z,54.09
2019-02-14T11:44:20.062Z,54.23
2019-02-14T11:46:51.518Z,54.53
2019-02-14T11:49:19.428Z,54.89
2019-02-14T11:51:48.251Z,53.90
2019-02-14T11:54:17.238Z,53.53
2019-02-14T11:56:46.143Z,52.05
2019-02-14T11:59:15.309Z,52.42
2019-02-14T12:01:44.178Z,51.89
2019-02-14T12:04:13.166Z,51.10
2019-02-14T12:06:42.279Z,51.15
2019-02-14T12:09:11.394Z,50.85
2019-02-14T12:11:40.288Z,50.18
2019-02-14T12:14:09.238Z,50.47
2019-02-14T12:16:38.227Z,49.51
2019-02-14T12:19:07.298Z,49.48
2019-02-14T12:21:36.193Z,49.16
2019-02-14T12:24:05.125Z,48.91
2019-02-14T12:26:34.116Z,47.04
2019-02-14T12:29:02.922Z,46.92
2019-02-14T12:31:31.850Z,46.31
2019-02-14T12:34:00.664Z,46.10
2019-02-14T12:36:29.642Z,46.58
2019-02-14T12:38:58.662Z,46.51
2019-02-14T12:41:27.835Z,46.73
2019-02-14T12:43:56.865Z,47.29
2019-02-14T12:46:25.885Z,46.47
2019-02-14T12:48:54.710Z,46.07
2019-02-14T12:51:23.803Z,45.88
2019-02-14T12:53:52.819Z,46.96
2019-02-14T12:56:21.836Z,47.36
2019-02-14T12:58:50.861Z,46.25
2019-02-14T13:01:21.940Z,45.77
2019-02-14T13:03:50.692Z,45.55
2019-02-14T13:06:19.687Z,45.17
2019-02-14T13:08:48.664Z,44.56
2019-02-14T13:11:17.711Z,46.96
2019-02-14T13:13:50.151Z,45.89
2019-02-14T13:16:17.303Z,44.94
2019-02-14T13:18:46.358Z,43.03
2019-02-14T13:21:15.337Z,43.06
2019-02-14T13:23:44.220Z,43.02
2019-02-14T13:26:13.183Z,43.46
2019-02-14T13:28:42.162Z,43.95
2019-02-14T13:31:11.323Z,44.21
2019-02-14T13:33:40.231Z,44.55
2019-02-14T13:36:09.229Z,44.61
2019-02-14T13:38:38.129Z,44.78
2019-02-14T13:41:07.071Z,45.84
2019-02-14T13:43:35.920Z,46.17
2019-02-14T13:46:04.896Z,46.20
2019-02-14T13:48:33.855Z,45.84
2019-02-14T13:51:02.829Z,45.83
2019-02-14T13:53:31.782Z,46.40
2019-02-14T13:56:00.649Z,46.58
2019-02-14T13:58:29.591Z,47.30
2019-02-14T14:00:58.512Z,47.16
2019-02-14T14:03:27.481Z,47.78
2019-02-14T14:05:56.449Z,47.39
2019-02-14T14:08:25.282Z,46.70
2019-02-14T14:10:54.183Z,47.32
2019-02-14T14:13:23.072Z,46.63
2019-02-14T14:15:51.954Z,46.72
2019-02-14T14:18:20.906Z,46.99
2019-02-14T14:20:49.926Z,46.56
2019-02-14T14:23:19.921Z,46.50
2019-02-14T14:25:48.938Z,45.77
2019-02-14T14:28:18.025Z,45.45
2019-02-14T14:30:47.030Z,42.51
2019-02-14T14:33:15.916Z,42.05
2019-02-14T14:35:44.872Z,40.70
2019-02-14T14:38:13.919Z,38.77
2019-02-14T14:40:42.805Z,38.17
2019-02-14T14:43:24.936Z,38.08
2019-02-14T14:46:08.592Z,38.00
2019-02-14T14:48:40.244Z,37.77
2019-02-14T14:51:09.231Z,36.88
2019-02-14T14:53:38.333Z,37.16
2019-02-14T14:56:07.233Z,36.68
2019-02-14T14:58:36.227Z,35.25
2019-02-14T15:01:05.518Z,34.80
2019-02-14T15:03:34.636Z,35.62
2019-02-14T15:06:03.617Z,36.09
2019-02-14T15:08:32.630Z,36.44
2019-02-14T15:11:01.601Z,36.09
2019-02-14T15:13:30.508Z,34.40
2019-02-14T15:15:59.336Z,33.43
2019-02-14T15:18:28.263Z,35.42
2019-02-14T15:20:57.161Z,34.15
2019-02-14T15:23:26.011Z,33.55
2019-02-14T15:25:54.801Z,34.34
2019-02-14T15:28:23.735Z,34.39
2019-02-14T15:30:52.644Z,34.82
2019-02-14T15:33:21.643Z,34.32
2019-02-14T15:35:50.563Z,34.96
2019-02-14T15:38:19.483Z,35.48
2019-02-14T15:40:48.453Z,36.26
2019-02-14T15:43:17.410Z,36.23
2019-02-14T15:45:46.435Z,35.41
2019-02-14T15:48:15.501Z,36.30
2019-02-14T15:50:44.494Z,35.88
2019-02-14T15:53:13.540Z,35.60
2019-02-14T15:55:43.788Z,36.46
2019-02-14T15:58:13.031Z,37.12
2019-02-14T16:00:41.926Z,38.15
2019-02-14T16:03:10.838Z,38.75
2019-02-14T16:05:40.755Z,38.96
2019-02-14T16:08:10.417Z,39.21
2019-02-14T16:10:39.448Z,40.38
2019-02-14T16:13:09.866Z,41.07
2019-02-14T16:15:39.068Z,42.89
2019-02-14T16:18:08.078Z,44.02
2019-02-14T16:20:36.914Z,43.64
2019-02-14T16:23:08.055Z,44.95
2019-02-14T16:25:36.739Z,45.83
2019-02-14T16:28:05.745Z,47.56
2019-02-14T16:30:34.668Z,48.14
2019-02-14T16:33:03.658Z,47.98
2019-02-14T16:35:35.707Z,49.08
2019-02-14T16:38:07.359Z,49.37
2019-02-14T16:40:38.585Z,50.49
2019-02-14T16:43:06.947Z,50.62
2019-02-14T16:45:35.768Z,50.54
2019-02-14T16:48:04.818Z,50.73
2019-02-14T16:50:33.638Z,50.84
2019-02-14T16:53:02.559Z,50.42
2019-02-14T16:55:31.494Z,51.39
2019-02-14T16:58:00.460Z,51.90
2019-02-14T17:00:29.469Z,52.23
2019-02-14T17:02:58.490Z,52.43
2019-02-14T17:05:27.480Z,52.57
2019-02-14T17:07:56.385Z,53.33
2019-02-14T17:10:25.303Z,54.00
2019-02-14T17:12:54.226Z,53.75
2019-02-14T17:15:23.509Z,54.72
2019-02-14T17:17:52.380Z,54.68
2019-02-14T17:20:21.380Z,55.97
2019-02-14T17:22:50.360Z,55.14
2019-02-14T17:25:19.379Z,55.90
2019-02-14T17:27:48.348Z,56.47
2019-02-14T17:30:17.197Z,56.86
2019-02-14T17:32:46.020Z,57.55
2019-02-14T17:35:14.919Z,58.13
2019-02-14T17:37:43.771Z,57.73
2019-02-14T17:40:12.753Z,59.02
2019-02-14T17:42:42.620Z,58.98
2019-02-14T17:45:11.636Z,58.11
2019-02-14T17:47:40.663Z,58.87
2019-02-14T17:50:09.727Z,59.67
2019-02-14T17:52:38.784Z,60.12
2019-02-14T17:55:08.391Z,60.29
2019-02-14T17:57:37.362Z,60.76
2019-02-14T18:00:07.462Z,61.11
2019-02-14T18:02:36.399Z,60.82
2019-02-14T18:05:05.663Z,60.48
2019-02-14T18:07:34.660Z,60.64
2019-02-14T18:10:03.691Z,60.63
2019-02-14T18:12:32.644Z,61.68
2019-02-14T18:15:01.533Z,62.54
2019-02-14T18:17:30.569Z,62.57
2019-02-14T18:19:59.665Z,63.81
2019-02-14T18:22:28.585Z,64.42
2019-02-14T18:24:57.471Z,65.09
2019-02-14T18:27:26.402Z,65.55
2019-02-14T18:29:55.280Z,65.34
2019-02-14T18:32:24.192Z,64.72
2019-02-14T18:34:52.958Z,63.61
2019-02-14T18:37:21.841Z,63.11
2019-02-14T18:39:50.635Z,63.78
2019-02-14T18:42:19.503Z,64.38
2019-02-14T18:44:48.451Z,63.89
2019-02-14T18:47:17.357Z,64.51
2019-02-14T18:49:46.269Z,64.34
2019-02-14T18:52:15.067Z,64.62
2019-02-14T18:54:43.902Z,64.73
2019-02-14T18:57:12.859Z,65.49
2019-02-14T18:59:41.798Z,65.69
2019-02-14T19:02:10.820Z,66.44
2019-02-14T19:04:39.968Z,66.98
2019-02-14T19:07:09.433Z,67.00
2019-02-14T19:09:38.315Z,67.18
2019-02-14T19:12:07.526Z,67.71
2019-02-14T19:14:36.538Z,68.12
2019-02-14T19:17:05.451Z,68.20
2019-02-14T19:19:34.479Z,68.65
2019-02-14T19:22:03.507Z,68.43
2019-02-14T19:24:32.367Z,68.87
2019-02-14T19:27:01.148Z,68.54
2019-02-14T19:29:29.969Z,67.76
2019-02-14T19:31:58.831Z,68.15
2019-02-14T19:34:27.772Z,68.54
2019-02-14T19:36:56.598Z,68.67
2019-02-14T19:39:25.512Z,69.37
2019-02-14T19:41:54.458Z,69.54
2019-02-14T19:44:23.415Z,69.93
2019-02-14T19:46:52.274Z,70.33
2019-02-14T19:49:21.074Z,70.33
2019-02-14T19:51:49.923Z,70.43
2019-02-14T19:54:18.943Z,71.26
2019-02-14T19:56:47.887Z,71.00
2019-02-14T19:59:16.899Z,71.14
2019-02-14T20:01:46.564Z,70.58
2019-02-14T20:04:15.651Z,70.37
2019-02-14T20:06:44.580Z,70.92
2019-02-14T20:09:16.817Z,71.31
2019-02-14T20:11:45.842Z,71.40
2019-02-14T20:14:14.878Z,71.31
2019-02-14T20:16:43.680Z,71.89
2019-02-14T20:19:12.668Z,72.55
2019-02-14T20:21:42.190Z,72.41
2019-02-14T20:24:11.161Z,72.30
2019-02-14T20:26:40.039Z,73.25
2019-02-14T20:29:09.081Z,72.82
2019-02-14T20:31:38.099Z,73.06
2019-02-14T20:34:07.141Z,72.22
2019-02-14T20:36:36.065Z,72.07
2019-02-14T20:39:06.130Z,71.59
2019-02-14T20:41:35.059Z,71.72
2019-02-14T20:44:04.118Z,72.29
2019-02-14T20:46:33.136Z,72.86
2019-02-14T20:49:02.062Z,70.50
2019-02-14T20:51:38.294Z,71.59
2019-02-14T20:54:01.659Z,71.95
2019-02-14T20:56:30.676Z,72.35
2019-02-14T20:58:59.626Z,72.43
2019-02-14T21:01:28.936Z,73.05
2019-02-14T21:03:57.956Z,72.78
2019-02-14T21:06:26.960Z,72.56
2019-02-14T21:08:55.916Z,73.19
2019-02-14T21:11:24.877Z,73.14
2019-02-14T21:13:53.857Z,73.51
2019-02-14T21:16:22.733Z,73.12
2019-02-14T21:18:51.541Z,74.06
2019-02-14T21:21:20.383Z,74.27
2019-02-14T21:23:49.338Z,74.56
2019-02-14T21:26:19.250Z,75.50
2019-02-14T21:28:48.021Z,74.86
2019-02-14T21:31:16.991Z,74.82
2019-02-14T21:33:45.858Z,73.86
2019-02-14T21:36:14.816Z,73.68
2019-02-14T21:38:44.290Z,73.64
2019-02-14T21:41:13.207Z,74.65
2019-02-14T21:43:42.031Z,74.47
2019-02-14T21:46:10.946Z,75.02
2019-02-14T21:48:39.898Z,75.24
2019-02-14T21:51:08.807Z,75.40
2019-02-14T21:53:37.883Z,75.13
2019-02-14T21:56:06.787Z,75.57
2019-02-14T21:58:35.755Z,75.88
2019-02-14T22:01:04.870Z,75.04
2019-02-14T22:03:33.739Z,75.06
2019-02-14T22:06:02.609Z,75.54
2019-02-14T22:08:31.484Z,76.29
2019-02-14T22:11:00.527Z,77.09
2019-02-14T22:13:29.441Z,77.49
2019-02-14T22:15:58.487Z,75.36
2019-02-14T22:18:27.448Z,74.58
2019-02-14T22:20:56.359Z,74.87
2019-02-14T22:23:25.324Z,75.34
2019-02-14T22:25:54.226Z,75.29
2019-02-14T22:28:23.672Z,75.38
2019-02-14T22:30:52.672Z,75.69
2019-02-14T22:33:21.574Z,75.71
2019-02-14T22:35:50.582Z,76.13
2019-02-14T22:38:19.492Z,76.11
2019-02-14T22:40:48.415Z,75.81
2019-02-14T22:43:17.291Z,76.17
2019-02-14T22:45:48.550Z,75.67
2019-02-14T22:48:17.458Z,75.85
2019-02-14T22:50:46.466Z,75.93
2019-02-14T22:53:15.615Z,75.28
2019-02-14T22:55:44.696Z,74.63
2019-02-14T22:58:13.617Z,75.79
2019-02-14T23:00:47.330Z,75.85
2019-02-14T23:03:16.358Z,76.09
2019-02-14T23:05:45.253Z,76.28
2019-02-14T23:08:14.240Z,76.00
2019-02-14T23:10:43.159Z,76.24
2019-02-14T23:13:12.124Z,76.11
2019-02-14T23:15:40.991Z,76.66
2019-02-14T23:18:09.801Z,77.33
2019-02-14T23:20:38.772Z,77.93
2019-02-14T23:23:07.764Z,77.34
2019-02-14T23:25:36.815Z,76.96
2019-02-14T23:28:05.789Z,76.30
2019-02-14T23:30:34.719Z,76.64
2019-02-14T23:33:03.923Z,76.79
2019-02-14T23:35:32.875Z,78.11
2019-02-14T23:38:01.783Z,78.33
2019-02-14T23:40:30.702Z,78.21
2019-02-14T23:43:04.792Z,77.90
2019-02-14T23:45:30.405Z,78.23
2019-02-14T23:47:59.395Z,78.22
2019-02-14T23:50:28.178Z,78.19
2019-02-14T23:52:57.203Z,78.91
2019-02-14T23:55:26.184Z,79.37
2019-02-14T23:57:55.216Z,79.59
